MQB weather

Macomb Municipal Airport
Macomb, Illinois, United States

Public forecast

Using degrees Fahrenheit for public forecast. Weather courtesy of forecast.io.

METAR (pilot weather report)

Retrieved 2019/05/21 02:35 UTC (3 minutes ago):

KMQB 210235Z AUTO 08007KT 10SM SCT120 10/07 A3013 RMK AO2 T01030065

TAF (pilot weather forecast)

Forecast is more than 12 hours old.

Closest forecast is Southeast Iowa Regional Airport, 26.7 nm (49.5 km) NW. Retrieved 2019/05/20 00:30 UTC (1 day ago):

TAF KBRL 202328Z 2100/2124 36007KT P6SM SCT035 OVC120 FM210100 06007KT P6SM BKN100 FM210600 09015G22KT P6SM -RA BKN035 FM210900 09012G20KT 5SM RA OVC012